Southern Sonoma County Latest

20 Stations

15 Minute Data
as of 9/1/26 4:49 AM PDT
Station Date Time Temp (°F) RH (%) Dew Pt (°F) Wind Spd (mph) Wind Dir (°) Wind Gust (mph) Latest Rain (In) Daily Rain (In) Daily Min Temp (°F) Daily Max Temp (°F)
Upper Rincon Valley 9/1/26 0445 53.6   2.3 91   5 51.0   0.8 0.5   0.1 N | 7 1.8   0.3 0.00 0.00 53.5   5.3 54.8   3.4
Lower Bennett Valley 9/1/26 0445 55.4   11.0 92   8 53.0   8.7 1.5   1.5 W | 260 3.3   2.7 0.00 0.00 50.2   8.8 56.8   9.7
Kenwood (Wildwood) 9/1/26 0445 57.0   5.6 85   3 52.6   4.7 1.3   0.9 NNE | 14 3.4   1.9 0.00 0.00 56.0   10.4 58.2   6.3
Crane Creek (Ranch 62) 9/1/26 0445 57.8   6.1 90   3 55.0   5.2 0.3   0.1 NE | 36 1.6   0.2 0.00 0.00 54.7   5.9 58.2   5.9
Rohnert Park-West (Stony Point) 9/1/26 0445 57.4   10.4 95   2 55.9   9.9 0.2   0.2 W | 262 3.4   3.4 0.00 0.00 56.1   14.9 58.2   11.2
Rice-Spivak Vineyard 9/1/26 0445 57.5   10.7 - - - - - - - 56.6   18.1 58.0   10.2
Cartograph Wines Base 9/1/26 0445 57.1   5.8 97   0 56.2   5.8 3.9   3.0 SW | 216 6.8   5.0 0.00 0.00 56.0   6.8 57.4   5.4
Cartograph Wines Remote 9/1/26 0445 56.9   7.4 - - - - - - - 56.4   10.9 58.2   8.5
Penngrove (Asellus) 9/1/26 0445 57.6   10.1 91   5 54.9   8.6 2.1   2.0 NW | 322 4.1   2.6 0.00 0.00 57.1   12.1 58.8   9.0
Sonoma Valley (Bedrock) 9/1/26 0445 57.2   9.0 82   7 51.8   6.7 - - - 0.00 0.00 56.8   11.9 57.9   8.3
Sonoma-West (Arnold) 9/1/26 0445 56.1   7.4 82   9 50.9   4.5 1.1   0.3 E | 98 2.5   0.4 0.00 0.00 56.1   11.1 60.1   11.4
Sonoma Valley HS 9/1/26 0445 57.1   8.2 88   10 53.6   5.1 0.7   0.6 S | 172 2.2   1.3 0.00 0.00 56.6   8.1 60.0   7.5
Sonoma East (Bundschu01) 9/1/26 0445 56.8   10.3 82   9 51.4   7.3 1.7   1.7 E | 87 3.1   3.1 0.00 0.00 54.5   8.4 60.1   9.1
Sonoma-SE (Napoli) 9/1/26 0445 58.6   10.3 83   7 53.5   8.0 0.4   0.4 WSW | 252 2.7   1.3 0.00 0.00 57.9   10.1 59.9   6.0
Schellville (Sasaki) 2/7/26 1900 53.4   2.2 88   10 49.9   1.0 3.3   1.8 SW | 225 5.8   4.0 0.00 0.00 47.0   0.8 62.8   8.4
Petaluma (Ranch 10) 9/1/26 0445 58.9   13.2 91   3 56.2   12.2 2.6   2.6 W | 266 6.6   6.0 0.00 0.00 58.8   14.0 59.5   11.2
Carneros (Ranch 71) 9/1/26 0445 57.7   5.0 89   3 54.5   4.0 5.3   4.0 WSW | 254 9.6   7.5 0.00 0.00 57.4   4.9 58.6   3.2
Ricci Vineyards (Carneros) 9/1/26 0445 59.0   11.5 87   7 55.2   9.5 5.3   5.2 W | 267 9.0   7.7 0.00 0.00 58.7   12.2 59.6   11.0
Carneros Upper (Ranch 81) 9/1/26 0445 57.6   2.5 90   2 54.5   2.9 8.5   6.2 WSW | 243 15.2   9.6 - - 57.6   4.6 58.6   3.4
Carneros Lower (Ranch 81) 9/1/26 0445 58.2   3.4 88   7 54.6   1.3 0.6   0.4 S | 178 2.8   0.4 0.00 0.00 58.2   8.1 60.0   5.2
Max     59.0 97 56.2 8.5 - 15.2 0.00 0.00 58.8 60.1
Avg     57.2 88 53.8 2.3 - 4.9 0.00 - - -
Min     53.6 82 50.9 0.2 - 1.6 0.00 0.00 50.2 54.8